Clipper Saga — LAFY6 — position and weather

sailwx.info

Track history (hours):
 
Tides and Currents Weather Stations Pressure Air Temp Water Temp Dewpoint Dewpoint Depression Visibility Wind Speed Wind Dir Waves Ship Positions

Clipper Saga

Last reported at 2016-May-04 09:33 UTC. Time now 2016-May-04 09:48 UTC.
Position N 54°01' E 008°04'.

Length 89 m; draft 5.9 m.

Type: Ship (hazmat cat C). MMSI: 246657008.

Date/timePositionNaut miles runAvg speedWind from/ knotsBaromVisibWave heightAir tempDewpointWater temp
2016-May-04 09:33N 54°01' E 008°04'1010.3
2016-May-04 08:33N 53°60' E 008°21'10 9.8
2016-May-04 07:33N 53°57' E 008°37'9 8.9
2016-May-04 06:33N 53°51' E 008°47'1211.7
2016-May-04 05:33N 53°53' E 009°07'2 2.1
2016-May-04 04:33N 53°54' E 009°09'8 8.1
2016-May-04 03:33N 54°01' E 009°18'22 7.4
2016-May-04 00:30N 54°18' E 009°42'7 7.1
2016-May-03 23:28N 54°21' E 009°53'7 7.3
2016-May-03 22:33N 54°22' E 010°05'2 1.5
2016-May-03 21:26N 54°22' E 010°08'0 0.6
2016-May-03 20:34N 54°22' E 010°08'15 7.6
2016-May-03 18:34N 54°32' E 010°27'1110.7
2016-May-03 17:34N 54°35' E 010°45'1111.4
2016-May-03 16:34N 54°36' E 011°05'1212.0
2016-May-03 15:34N 54°32' E 011°24'1211.8
2016-May-03 14:34N 54°27' E 011°43'1110.8
2016-May-03 13:33N 54°26' E 012°01'10 9.9
2016-May-03 12:34N 54°34' E 012°13'1111.2
2016-May-03 11:33N 54°41' E 012°27'2811.4
2016-May-03 09:05N 54°53' E 013°12'611.8
2016-May-03 08:33N 54°55' E 013°22'1211.7
2016-May-03 07:33N 54°59' E 013°41'1211.8
2016-May-03 06:33N 55°03' E 014°00'1111.5
2016-May-03 05:33N 55°11' E 014°14'1211.6
2016-May-03 04:34N 55°20' E 014°27'1111.4
2016-May-03 03:34N 55°28' E 014°41'1111.5
2016-May-03 02:34N 55°34' E 014°59'1111.4
2016-May-03 01:34N 55°40' E 015°16'1211.5
2016-May-03 00:30N 55°46' E 015°35'1111.7
2016-May-02 23:31N 55°52' E 015°52'  
2016-Apr-28 05:21N 59°34' E 021°20'1011.7
2016-Apr-28 04:29N 59°33' E 021°40'3711.5
2016-Apr-28 01:15N 59°34' E 022°53'811.7
2016-Apr-28 00:33N 59°37' E 023°08'1211.7
2016-Apr-27 23:34N 59°40' E 023°31'1211.6
2016-Apr-27 22:33N 59°43' E 023°53'7011.5
2016-Apr-27 16:27N 60°03' E 026°06'1011.5
2016-Apr-27 15:33N 60°11' E 026°22'1111.0
2016-Apr-27 14:33N 60°19' E 026°35'1111.2
2016-Apr-27 13:34N 60°25' E 026°55'1 0.7
2016-Apr-27 12:27N 60°26' E 026°55'0 0.0
2016-Apr-27 11:33N 60°26' E 026°55'0 0.0
2016-Apr-27 10:33N 60°26' E 026°55'0 0.0
2016-Apr-27 09:33N 60°26' E 026°55'0 0.0
2016-Apr-27 08:30N 60°26' E 026°55'0 0.0
2016-Apr-27 07:30N 60°26' E 026°55'0 0.0
2016-Apr-27 06:33N 60°26' E 026°55'0 0.0
2016-Apr-27 05:33N 60°26' E 026°55'0 0.0
2016-Apr-27 04:33N 60°26' E 026°55'0 0.0
2016-Apr-27 03:33N 60°26' E 026°55'0 0.0
2016-Apr-27 02:33N 60°26' E 026°55'0 0.0
2016-Apr-27 01:33N 60°26' E 026°55'0 0.0
2016-Apr-27 00:33N 60°26' E 026°55'0 0.0
2016-Apr-26 23:33N 60°26' E 026°55'0 0.0
2016-Apr-26 22:33N 60°26' E 026°55'0 0.0
2016-Apr-26 21:33N 60°26' E 026°55'0 0.0
2016-Apr-26 20:33N 60°26' E 026°55'0 0.0
2016-Apr-26 19:33N 60°26' E 026°55'0 0.0
2016-Apr-26 18:33N 60°26' E 026°55'0 0.0
2016-Apr-26 17:33N 60°26' E 026°55'0 0.0
2016-Apr-26 16:33N 60°26' E 026°55'0 0.0
2016-Apr-26 15:33N 60°26' E 026°55'0 0.0
2016-Apr-26 14:33N 60°26' E 026°55'0 0.0
2016-Apr-26 13:30N 60°26' E 026°55'0 0.0
2016-Apr-26 12:33N 60°26' E 026°55'0 0.0
2016-Apr-26 11:33N 60°26' E 026°55'0 0.0
2016-Apr-26 10:30N 60°26' E 026°55'0 0.0
2016-Apr-26 09:33N 60°26' E 026°55'0 0.0
2016-Apr-26 08:33N 60°26' E 026°55'0 0.0
2016-Apr-26 07:30N 60°26' E 026°55'6 5.9
2016-Apr-26 06:33N 60°23' E 026°46'1211.8
2016-Apr-26 05:33N 60°15' E 026°27'6 6.2
2016-Apr-26 04:33N 60°10' E 026°22'68 2.6
2016-Apr-25 02:30N 59°29' E 024°33'0 0.0
2016-Apr-25 01:30N 59°29' E 024°32'0 0.0
2016-Apr-25 00:30N 59°29' E 024°32'0 0.0
2016-Apr-24 23:30N 59°29' E 024°32'0 0.0
2016-Apr-24 14:24N 59°29' E 024°32'  
Track history (hours):
 
Tides and Currents Weather Stations Pressure Air Temp Water Temp Dewpoint Dewpoint Depression Visibility Wind Speed Wind Dir Waves Ship Positions

Clipper Saga

Last reported at 2016-May-04 09:33 UTC. Time now 2016-May-04 09:48 UTC.
Position N 54°01' E 008°04'.

Length 89 m; draft 5.9 m.

Type: Ship (hazmat cat C). MMSI: 246657008.

Date/timePositionNaut miles runAvg speedWind from/ knotsBaromVisibWave heightAir tempDewpointWater temp
2016-May-04 09:33N 54°01' E 008°04'1010.3
2016-May-04 08:33N 53°60' E 008°21'10 9.8
2016-May-04 07:33N 53°57' E 008°37'9 8.9
2016-May-04 06:33N 53°51' E 008°47'1211.7
2016-May-04 05:33N 53°53' E 009°07'2 2.1
2016-May-04 04:33N 53°54' E 009°09'8 8.1
2016-May-04 03:33N 54°01' E 009°18'22 7.4
2016-May-04 00:30N 54°18' E 009°42'7 7.1
2016-May-03 23:28N 54°21' E 009°53'7 7.3
2016-May-03 22:33N 54°22' E 010°05'2 1.5
2016-May-03 21:26N 54°22' E 010°08'0 0.6
2016-May-03 20:34N 54°22' E 010°08'15 7.6
2016-May-03 18:34N 54°32' E 010°27'1110.7
2016-May-03 17:34N 54°35' E 010°45'1111.4
2016-May-03 16:34N 54°36' E 011°05'1212.0
2016-May-03 15:34N 54°32' E 011°24'1211.8
2016-May-03 14:34N 54°27' E 011°43'1110.8
2016-May-03 13:33N 54°26' E 012°01'10 9.9
2016-May-03 12:34N 54°34' E 012°13'1111.2
2016-May-03 11:33N 54°41' E 012°27'2811.4
2016-May-03 09:05N 54°53' E 013°12'611.8
2016-May-03 08:33N 54°55' E 013°22'1211.7
2016-May-03 07:33N 54°59' E 013°41'1211.8
2016-May-03 06:33N 55°03' E 014°00'1111.5
2016-May-03 05:33N 55°11' E 014°14'1211.6
2016-May-03 04:34N 55°20' E 014°27'1111.4
2016-May-03 03:34N 55°28' E 014°41'1111.5
2016-May-03 02:34N 55°34' E 014°59'1111.4
2016-May-03 01:34N 55°40' E 015°16'1211.5
2016-May-03 00:30N 55°46' E 015°35'1111.7
2016-May-02 23:31N 55°52' E 015°52'  
2016-Apr-28 05:21N 59°34' E 021°20'1011.7
2016-Apr-28 04:29N 59°33' E 021°40'3711.5
2016-Apr-28 01:15N 59°34' E 022°53'811.7
2016-Apr-28 00:33N 59°37' E 023°08'1211.7
2016-Apr-27 23:34N 59°40' E 023°31'1211.6
2016-Apr-27 22:33N 59°43' E 023°53'7011.5
2016-Apr-27 16:27N 60°03' E 026°06'1011.5
2016-Apr-27 15:33N 60°11' E 026°22'1111.0
2016-Apr-27 14:33N 60°19' E 026°35'1111.2
2016-Apr-27 13:34N 60°25' E 026°55'1 0.7
2016-Apr-27 12:27N 60°26' E 026°55'0 0.0
2016-Apr-27 11:33N 60°26' E 026°55'0 0.0
2016-Apr-27 10:33N 60°26' E 026°55'0 0.0
2016-Apr-27 09:33N 60°26' E 026°55'0 0.0
2016-Apr-27 08:30N 60°26' E 026°55'0 0.0
2016-Apr-27 07:30N 60°26' E 026°55'0 0.0
2016-Apr-27 06:33N 60°26' E 026°55'0 0.0
2016-Apr-27 05:33N 60°26' E 026°55'0 0.0
2016-Apr-27 04:33N 60°26' E 026°55'0 0.0
2016-Apr-27 03:33N 60°26' E 026°55'0 0.0
2016-Apr-27 02:33N 60°26' E 026°55'0 0.0
2016-Apr-27 01:33N 60°26' E 026°55'0 0.0
2016-Apr-27 00:33N 60°26' E 026°55'0 0.0
2016-Apr-26 23:33N 60°26' E 026°55'0 0.0
2016-Apr-26 22:33N 60°26' E 026°55'0 0.0
2016-Apr-26 21:33N 60°26' E 026°55'0 0.0
2016-Apr-26 20:33N 60°26' E 026°55'0 0.0
2016-Apr-26 19:33N 60°26' E 026°55'0 0.0
2016-Apr-26 18:33N 60°26' E 026°55'0 0.0
2016-Apr-26 17:33N 60°26' E 026°55'0 0.0
2016-Apr-26 16:33N 60°26' E 026°55'0 0.0
2016-Apr-26 15:33N 60°26' E 026°55'0 0.0
2016-Apr-26 14:33N 60°26' E 026°55'0 0.0
2016-Apr-26 13:30N 60°26' E 026°55'0 0.0
2016-Apr-26 12:33N 60°26' E 026°55'0 0.0
2016-Apr-26 11:33N 60°26' E 026°55'0 0.0
2016-Apr-26 10:30N 60°26' E 026°55'0 0.0
2016-Apr-26 09:33N 60°26' E 026°55'0 0.0
2016-Apr-26 08:33N 60°26' E 026°55'0 0.0
2016-Apr-26 07:30N 60°26' E 026°55'6 5.9
2016-Apr-26 06:33N 60°23' E 026°46'1211.8
2016-Apr-26 05:33N 60°15' E 026°27'6 6.2
2016-Apr-26 04:33N 60°10' E 026°22'68 2.6
2016-Apr-25 02:30N 59°29' E 024°33'0 0.0
2016-Apr-25 01:30N 59°29' E 024°32'0 0.0
2016-Apr-25 00:30N 59°29' E 024°32'0 0.0
2016-Apr-24 23:30N 59°29' E 024°32'0 0.0
2016-Apr-24 14:24N 59°29' E 024°32'  

Dump ship's entire track history